Terminal Aerodrome Forecast
Issued by NWS Cleveland, OH

Home | Current Version | Previous Version | Graphics & Text | Print | Product List | Glossary On
Versions: 1 2 3 4 5 6 7 8 9 10 11 12 13 14 15 16 17 18 19 20 21
000
FTUS41 KCLE 152300 RRA
TAFMFD
TAF
KMFD 152343Z 1600/1624 36005KT 6SM -SHRA SCT030 OVC045
      TEMPO 1600/1603 4SM RA BR BKN028 OVC040
     FM160400 35004KT P6SM VCSH BKN012
     FM160700 33004KT 3SM BR BKN006 OVC012
      TEMPO 1609/1613 2SM BR OVC004
     FM161500 33004KT 5SM BR OVC015
     FM161900 33004KT P6SM BKN022=

USA.gov is the U.S. government's official web portal to all federal, state and local government web resources and services.